sensor_id;sensor_type;location;lat;lon;timestamp;temperature;humidity
37356;DHT22;48747;50.250;18.848;2023-04-19T05:43:53;9.40;99.90
37356;DHT22;48747;50.250;18.848;2023-04-19T05:45:58;9.40;99.90
37356;DHT22;48747;50.250;18.848;2023-04-19T05:48:04;9.40;99.90
37356;DHT22;48747;50.250;18.848;2023-04-19T05:50:10;9.50;99.90
37356;DHT22;48747;50.250;18.848;2023-04-19T05:52:36;9.40;99.90
37356;DHT22;48747;50.250;18.848;2023-04-19T06:07:23;9.30;99.90
37356;DHT22;48747;50.250;18.848;2023-04-19T06:09:16;9.20;99.90
37356;DHT22;48747;50.250;18.848;2023-04-19T06:11:22;9.10;99.90
37356;DHT22;48747;50.250;18.848;2023-04-19T06:13:27;9.00;99.90
37356;DHT22;48747;50.250;18.848;2023-04-19T06:15:35;9.00;99.90
37356;DHT22;48747;50.250;18.848;2023-04-19T06:17:44;9.00;99.90
37356;DHT22;48747;50.250;18.848;2023-04-19T06:20:07;8.90;99.90
37356;DHT22;48747;50.250;18.848;2023-04-19T08:52:32;10.30;99.90
37356;DHT22;48747;50.250;18.848;2023-04-19T08:54:40;10.20;99.90
37356;DHT22;48747;50.250;18.848;2023-04-19T08:56:43;9.80;99.90
37356;DHT22;48747;50.250;18.848;2023-04-19T08:58:48;9.60;99.90
37356;DHT22;48747;50.250;18.848;2023-04-19T09:00:51;9.40;99.90
37356;DHT22;48747;50.250;18.848;2023-04-19T09:02:56;9.30;99.90
37356;DHT22;48747;50.250;18.848;2023-04-19T09:05:00;9.20;99.90
37356;DHT22;48747;50.250;18.848;2023-04-19T09:07:04;8.90;99.90
37356;DHT22;48747;50.250;18.848;2023-04-19T09:09:20;8.70;99.90
37356;DHT22;48747;50.250;18.848;2023-04-19T09:11:37;8.60;99.90
37356;DHT22;48747;50.250;18.848;2023-04-19T09:13:40;8.50;99.90
37356;DHT22;48747;50.250;18.848;2023-04-19T09:15:44;8.40;99.90
37356;DHT22;48747;50.250;18.848;2023-04-19T09:18:02;8.20;99.90
37356;DHT22;48747;50.250;18.848;2023-04-19T09:19:55;8.10;99.90
37356;DHT22;48747;50.250;18.848;2023-04-19T09:22:11;8.10;99.90
37356;DHT22;48747;50.250;18.848;2023-04-19T09:24:11;8.10;99.90
37356;DHT22;48747;50.250;18.848;2023-04-19T09:26:13;8.00;99.90
37356;DHT22;48747;50.250;18.848;2023-04-19T09:28:17;8.00;99.90
37356;DHT22;48747;50.250;18.848;2023-04-19T09:30:24;8.00;99.90
37356;DHT22;48747;50.250;18.848;2023-04-19T09:32:42;7.90;99.90
37356;DHT22;48747;50.250;18.848;2023-04-19T09:34:35;7.90;99.90
37356;DHT22;48747;50.250;18.848;2023-04-19T09:36:40;7.90;99.90
37356;DHT22;48747;50.250;18.848;2023-04-19T09:38:45;7.80;99.90
37356;DHT22;48747;50.250;18.848;2023-04-19T09:40:50;7.90;99.90
37356;DHT22;48747;50.250;18.848;2023-04-19T09:42:54;7.80;99.90
37356;DHT22;48747;50.250;18.848;2023-04-19T09:44:58;7.80;99.90
37356;DHT22;48747;50.250;18.848;2023-04-19T09:47:23;7.90;99.90
37356;DHT22;48747;50.250;18.848;2023-04-19T09:49:32;7.90;99.90
37356;DHT22;48747;50.250;18.848;2023-04-19T09:51:40;7.80;99.90
37356;DHT22;48747;50.250;18.848;2023-04-19T09:53:44;7.70;99.90
37356;DHT22;48747;50.250;18.848;2023-04-19T09:55:53;7.80;99.90
37356;DHT22;48747;50.250;18.848;2023-04-19T09:58:07;7.80;99.90
37356;DHT22;48747;50.250;18.848;2023-04-19T10:00:17;7.80;99.90
37356;DHT22;48747;50.250;18.848;2023-04-19T10:02:20;7.80;99.90
37356;DHT22;48747;50.250;18.848;2023-04-19T10:04:24;7.80;99.90
37356;DHT22;48747;50.250;18.848;2023-04-19T10:06:44;7.80;99.90
37356;DHT22;48747;50.250;18.848;2023-04-19T10:08:37;7.80;99.90
37356;DHT22;48747;50.250;18.848;2023-04-19T10:10:41;7.80;99.90
37356;DHT22;48747;50.250;18.848;2023-04-19T10:12:50;7.80;99.90
37356;DHT22;48747;50.250;18.848;2023-04-19T10:17:16;7.80;99.90
37356;DHT22;48747;50.250;18.848;2023-04-19T10:19:09;7.70;99.90
37356;DHT22;48747;50.250;18.848;2023-04-19T10:21:14;7.70;99.90
37356;DHT22;48747;50.250;18.848;2023-04-19T10:23:27;7.70;99.90
37356;DHT22;48747;50.250;18.848;2023-04-19T10:25:35;7.80;99.90
37356;DHT22;48747;50.250;18.848;2023-04-19T10:27:39;7.70;99.90
37356;DHT22;48747;50.250;18.848;2023-04-19T10:30:04;7.70;99.90
37356;DHT22;48747;50.250;18.848;2023-04-19T10:32:07;7.80;99.90
37356;DHT22;48747;50.250;18.848;2023-04-19T10:34:13;7.70;99.90
37356;DHT22;48747;50.250;18.848;2023-04-19T10:36:17;7.70;99.90
37356;DHT22;48747;50.250;18.848;2023-04-19T10:38:39;7.80;99.90
37356;DHT22;48747;50.250;18.848;2023-04-19T10:41:00;7.70;99.90
37356;DHT22;48747;50.250;18.848;2023-04-19T10:45:35;7.80;99.90
37356;DHT22;48747;50.250;18.848;2023-04-19T10:47:40;7.80;99.90
37356;DHT22;48747;50.250;18.848;2023-04-19T10:50:00;7.80;99.90
37356;DHT22;48747;50.250;18.848;2023-04-19T10:52:10;7.80;99.90
37356;DHT22;48747;50.250;18.848;2023-04-19T10:54:05;7.80;99.90
37356;DHT22;48747;50.250;18.848;2023-04-19T10:56:04;7.90;99.90
37356;DHT22;48747;50.250;18.848;2023-04-19T10:58:10;7.90;99.90
37356;DHT22;48747;50.250;18.848;2023-04-19T11:00:23;7.90;99.90
37356;DHT22;48747;50.250;18.848;2023-04-19T11:02:27;7.90;99.90
37356;DHT22;48747;50.250;18.848;2023-04-19T11:06:58;7.90;99.90
37356;DHT22;48747;50.250;18.848;2023-04-19T11:09:02;7.90;99.90
37356;DHT22;48747;50.250;18.848;2023-04-19T11:11:08;7.90;99.90
37356;DHT22;48747;50.250;18.848;2023-04-19T11:13:16;7.80;99.90
37356;DHT22;48747;50.250;18.848;2023-04-19T11:15:22;7.80;99.90
37356;DHT22;48747;50.250;18.848;2023-04-19T11:17:29;7.80;99.90
37356;DHT22;48747;50.250;18.848;2023-04-19T11:19:41;7.80;99.90
37356;DHT22;48747;50.250;18.848;2023-04-19T11:21:53;7.80;99.90
37356;DHT22;48747;50.250;18.848;2023-04-19T11:24:11;7.80;99.90
37356;DHT22;48747;50.250;18.848;2023-04-19T11:26:17;7.70;99.90
37356;DHT22;48747;50.250;18.848;2023-04-19T11:28:25;7.60;99.90
37356;DHT22;48747;50.250;18.848;2023-04-19T11:30:33;7.60;99.90
37356;DHT22;48747;50.250;18.848;2023-04-19T11:32:48;7.50;99.90
37356;DHT22;48747;50.250;18.848;2023-04-19T11:34:49;7.60;99.90
37356;DHT22;48747;50.250;18.848;2023-04-19T11:36:56;7.50;99.90
37356;DHT22;48747;50.250;18.848;2023-04-19T11:39:03;7.50;99.90
37356;DHT22;48747;50.250;18.848;2023-04-19T11:41:10;7.50;99.90
37356;DHT22;48747;50.250;18.848;2023-04-19T11:43:20;7.60;99.90
37356;DHT22;48747;50.250;18.848;2023-04-19T11:45:29;7.50;99.90
37356;DHT22;48747;50.250;18.848;2023-04-19T11:47:48;7.50;99.90
37356;DHT22;48747;50.250;18.848;2023-04-19T11:49:56;7.60;99.90
37356;DHT22;48747;50.250;18.848;2023-04-19T11:52:01;7.60;99.90
37356;DHT22;48747;50.250;18.848;2023-04-19T11:54:18;7.60;99.90
37356;DHT22;48747;50.250;18.848;2023-04-19T11:56:21;7.70;99.90
37356;DHT22;48747;50.250;18.848;2023-04-19T11:58:56;7.80;99.90
37356;DHT22;48747;50.250;18.848;2023-04-19T12:00:47;7.80;99.90
37356;DHT22;48747;50.250;18.848;2023-04-19T12:02:54;7.90;99.90
37356;DHT22;48747;50.250;18.848;2023-04-19T12:05:07;8.00;99.90
37356;DHT22;48747;50.250;18.848;2023-04-19T12:07:11;8.00;99.90
37356;DHT22;48747;50.250;18.848;2023-04-19T12:09:19;8.00;99.90
37356;DHT22;48747;50.250;18.848;2023-04-19T12:11:26;8.00;99.90
37356;DHT22;48747;50.250;18.848;2023-04-19T12:13:31;8.00;99.90
37356;DHT22;48747;50.250;18.848;2023-04-19T12:15:44;7.90;99.90
37356;DHT22;48747;50.250;18.848;2023-04-19T12:18:00;7.90;99.90
37356;DHT22;48747;50.250;18.848;2023-04-19T12:20:03;7.90;99.90
37356;DHT22;48747;50.250;18.848;2023-04-19T12:24:34;7.80;99.90
37356;DHT22;48747;50.250;18.848;2023-04-19T12:26:51;7.80;99.90
37356;DHT22;48747;50.250;18.848;2023-04-19T12:28:43;7.80;99.90
37356;DHT22;48747;50.250;18.848;2023-04-19T12:30:46;7.80;99.90
37356;DHT22;48747;50.250;18.848;2023-04-19T12:32:54;7.80;99.90
37356;DHT22;48747;50.250;18.848;2023-04-19T12:34:57;7.80;99.90
37356;DHT22;48747;50.250;18.848;2023-04-19T12:37:02;7.90;99.90
37356;DHT22;48747;50.250;18.848;2023-04-19T12:39:05;7.90;99.90
37356;DHT22;48747;50.250;18.848;2023-04-19T12:41:10;7.90;99.90
37356;DHT22;48747;50.250;18.848;2023-04-19T12:43:13;7.80;99.90
37356;DHT22;48747;50.250;18.848;2023-04-19T12:45:17;7.80;99.90
37356;DHT22;48747;50.250;18.848;2023-04-19T12:47:21;7.70;99.90
37356;DHT22;48747;50.250;18.848;2023-04-19T12:49:32;7.70;99.90
37356;DHT22;48747;50.250;18.848;2023-04-19T12:51:33;7.70;99.90
37356;DHT22;48747;50.250;18.848;2023-04-19T12:53:58;7.70;99.90
37356;DHT22;48747;50.250;18.848;2023-04-19T12:55:55;7.80;99.90
37356;DHT22;48747;50.250;18.848;2023-04-19T12:57:58;7.80;99.90
37356;DHT22;48747;50.250;18.848;2023-04-19T13:00:13;7.70;99.90
37356;DHT22;48747;50.250;18.848;2023-04-19T13:04:38;7.60;99.90
37356;DHT22;48747;50.250;18.848;2023-04-19T13:06:38;7.60;99.90
37356;DHT22;48747;50.250;18.848;2023-04-19T13:08:45;7.50;99.90
37356;DHT22;48747;50.250;18.848;2023-04-19T13:10:57;7.40;99.90
37356;DHT22;48747;50.250;18.848;2023-04-19T13:13:02;7.40;99.90
37356;DHT22;48747;50.250;18.848;2023-04-19T13:15:05;7.30;99.90
37356;DHT22;48747;50.250;18.848;2023-04-19T13:17:12;7.30;99.90
37356;DHT22;48747;50.250;18.848;2023-04-19T13:19:22;7.30;99.90
37356;DHT22;48747;50.250;18.848;2023-04-19T13:24:39;7.20;99.90
37356;DHT22;48747;50.250;18.848;2023-04-19T13:29:26;7.20;99.90
37356;DHT22;48747;50.250;18.848;2023-04-19T13:31:33;7.30;99.90
37356;DHT22;48747;50.250;18.848;2023-04-19T13:33:36;7.20;99.90
37356;DHT22;48747;50.250;18.848;2023-04-19T13:35:53;7.30;99.90
37356;DHT22;48747;50.250;18.848;2023-04-19T13:37:45;7.20;99.90
37356;DHT22;48747;50.250;18.848;2023-04-19T13:40:29;7.20;99.90
37356;DHT22;48747;50.250;18.848;2023-04-19T13:48:18;7.10;99.90
37356;DHT22;48747;50.250;18.848;2023-04-19T13:50:25;7.00;99.90
37356;DHT22;48747;50.250;18.848;2023-04-19T13:52:28;7.00;99.90
37356;DHT22;48747;50.250;18.848;2023-04-19T13:54:32;6.90;99.90
37356;DHT22;48747;50.250;18.848;2023-04-19T13:56:39;6.90;99.90
37356;DHT22;48747;50.250;18.848;2023-04-19T13:58:46;6.90;99.90
37356;DHT22;48747;50.250;18.848;2023-04-19T14:00:49;6.90;99.90
37356;DHT22;48747;50.250;18.848;2023-04-19T14:02:57;6.90;99.90
37356;DHT22;48747;50.250;18.848;2023-04-19T14:04:59;6.90;99.90
37356;DHT22;48747;50.250;18.848;2023-04-19T14:07:03;7.00;99.90
37356;DHT22;48747;50.250;18.848;2023-04-19T14:09:08;7.00;99.90
37356;DHT22;48747;50.250;18.848;2023-04-19T14:11:13;7.00;99.90
37356;DHT22;48747;50.250;18.848;2023-04-19T14:13:18;7.00;99.90
37356;DHT22;48747;50.250;18.848;2023-04-19T14:15:25;7.00;99.90
37356;DHT22;48747;50.250;18.848;2023-04-19T14:17:29;7.00;99.90
37356;DHT22;48747;50.250;18.848;2023-04-19T14:19:32;7.00;99.90
37356;DHT22;48747;50.250;18.848;2023-04-19T14:21:42;6.90;99.90
37356;DHT22;48747;50.250;18.848;2023-04-19T14:23:42;7.00;99.90
37356;DHT22;48747;50.250;18.848;2023-04-19T14:25:45;7.00;99.90
37356;DHT22;48747;50.250;18.848;2023-04-19T14:27:48;7.00;99.90
37356;DHT22;48747;50.250;18.848;2023-04-19T14:29:51;7.10;99.90
37356;DHT22;48747;50.250;18.848;2023-04-19T14:31:54;7.10;99.90
37356;DHT22;48747;50.250;18.848;2023-04-19T14:33:59;7.00;99.90
37356;DHT22;48747;50.250;18.848;2023-04-19T14:36:05;7.00;99.90
37356;DHT22;48747;50.250;18.848;2023-04-19T14:38:13;7.00;99.90
37356;DHT22;48747;50.250;18.848;2023-04-19T14:40:15;7.00;99.90
37356;DHT22;48747;50.250;18.848;2023-04-19T14:42:19;6.90;99.90
37356;DHT22;48747;50.250;18.848;2023-04-19T14:44:23;6.90;99.90
37356;DHT22;48747;50.250;18.848;2023-04-19T14:46:29;6.90;99.90
37356;DHT22;48747;50.250;18.848;2023-04-19T14:48:34;6.90;99.90
37356;DHT22;48747;50.250;18.848;2023-04-19T14:50:38;6.90;99.90
37356;DHT22;48747;50.250;18.848;2023-04-19T14:52:45;6.80;99.90
37356;DHT22;48747;50.250;18.848;2023-04-19T14:54:49;6.80;99.90
37356;DHT22;48747;50.250;18.848;2023-04-19T14:56:57;6.80;99.90
37356;DHT22;48747;50.250;18.848;2023-04-19T14:59:00;6.80;99.90
37356;DHT22;48747;50.250;18.848;2023-04-19T15:01:15;6.80;99.90
37356;DHT22;48747;50.250;18.848;2023-04-19T15:03:20;6.80;99.90
37356;DHT22;48747;50.250;18.848;2023-04-19T15:05:25;6.80;99.90
37356;DHT22;48747;50.250;18.848;2023-04-19T15:07:34;6.90;99.90
37356;DHT22;48747;50.250;18.848;2023-04-19T15:09:33;6.80;99.90
37356;DHT22;48747;50.250;18.848;2023-04-19T15:11:36;6.80;99.90
37356;DHT22;48747;50.250;18.848;2023-04-19T15:13:41;6.90;99.90
37356;DHT22;48747;50.250;18.848;2023-04-19T15:18:12;6.90;99.90
37356;DHT22;48747;50.250;18.848;2023-04-19T15:20:15;6.90;99.90
37356;DHT22;48747;50.250;18.848;2023-04-19T15:22:18;6.90;99.90
37356;DHT22;48747;50.250;18.848;2023-04-19T15:24:24;6.90;99.90
37356;DHT22;48747;50.250;18.848;2023-04-19T15:26:29;6.90;99.90
37356;DHT22;48747;50.250;18.848;2023-04-19T15:28:33;7.00;99.90
37356;DHT22;48747;50.250;18.848;2023-04-19T15:30:40;6.90;99.90
37356;DHT22;48747;50.250;18.848;2023-04-19T15:32:43;7.00;99.90
37356;DHT22;48747;50.250;18.848;2023-04-19T15:34:46;6.90;99.90
37356;DHT22;48747;50.250;18.848;2023-04-19T15:36:49;6.90;99.90
37356;DHT22;48747;50.250;18.848;2023-04-19T15:38:53;6.90;99.90
37356;DHT22;48747;50.250;18.848;2023-04-19T15:41:01;6.90;99.90
37356;DHT22;48747;50.250;18.848;2023-04-19T15:43:02;6.90;99.90
37356;DHT22;48747;50.250;18.848;2023-04-19T15:45:06;6.90;99.90
37356;DHT22;48747;50.250;18.848;2023-04-19T15:47:16;6.90;99.90
37356;DHT22;48747;50.250;18.848;2023-04-19T15:49:20;6.90;99.90
37356;DHT22;48747;50.250;18.848;2023-04-19T15:51:23;6.90;99.90
37356;DHT22;48747;50.250;18.848;2023-04-19T15:53:28;6.90;99.90
37356;DHT22;48747;50.250;18.848;2023-04-19T15:55:32;6.90;99.90
37356;DHT22;48747;50.250;18.848;2023-04-19T15:57:35;6.90;99.90
37356;DHT22;48747;50.250;18.848;2023-04-19T15:59:39;6.90;99.90
37356;DHT22;48747;50.250;18.848;2023-04-19T16:01:42;6.90;99.90
37356;DHT22;48747;50.250;18.848;2023-04-19T16:03:45;6.90;99.90
37356;DHT22;48747;50.250;18.848;2023-04-19T16:05:50;7.00;99.90
37356;DHT22;48747;50.250;18.848;2023-04-19T16:08:04;6.90;99.90
37356;DHT22;48747;50.250;18.848;2023-04-19T16:10:09;6.90;99.90
37356;DHT22;48747;50.250;18.848;2023-04-19T16:12:17;6.90;99.90
37356;DHT22;48747;50.250;18.848;2023-04-19T16:14:17;6.90;99.90
37356;DHT22;48747;50.250;18.848;2023-04-19T16:16:21;6.90;99.90
37356;DHT22;48747;50.250;18.848;2023-04-19T16:18:31;7.00;99.90
37356;DHT22;48747;50.250;18.848;2023-04-19T16:20:31;6.90;99.90
37356;DHT22;48747;50.250;18.848;2023-04-19T16:22:34;6.90;99.90
37356;DHT22;48747;50.250;18.848;2023-04-19T16:24:39;6.90;99.90
37356;DHT22;48747;50.250;18.848;2023-04-19T16:26:42;7.00;99.90
37356;DHT22;48747;50.250;18.848;2023-04-19T16:28:46;7.00;99.90
37356;DHT22;48747;50.250;18.848;2023-04-19T16:30:52;6.90;99.90
37356;DHT22;48747;50.250;18.848;2023-04-19T16:32:57;6.90;99.90
37356;DHT22;48747;50.250;18.848;2023-04-19T16:35:08;6.90;99.90
37356;DHT22;48747;50.250;18.848;2023-04-19T16:40:07;6.90;99.90
37356;DHT22;48747;50.250;18.848;2023-04-19T16:42:16;7.00;99.90
37356;DHT22;48747;50.250;18.848;2023-04-19T16:44:17;7.00;99.90
37356;DHT22;48747;50.250;18.848;2023-04-19T16:46:27;7.00;99.90
37356;DHT22;48747;50.250;18.848;2023-04-19T16:48:31;7.00;99.90
37356;DHT22;48747;50.250;18.848;2023-04-19T16:57:54;7.00;99.90
37356;DHT22;48747;50.250;18.848;2023-04-19T16:59:56;7.00;99.90
37356;DHT22;48747;50.250;18.848;2023-04-19T17:02:01;7.00;99.90
37356;DHT22;48747;50.250;18.848;2023-04-19T17:06:16;7.00;99.90
37356;DHT22;48747;50.250;18.848;2023-04-19T17:08:31;7.00;99.90
37356;DHT22;48747;50.250;18.848;2023-04-19T17:10:38;7.00;99.90
37356;DHT22;48747;50.250;18.848;2023-04-19T17:12:39;7.10;99.90
37356;DHT22;48747;50.250;18.848;2023-04-19T17:14:44;7.10;99.90
37356;DHT22;48747;50.250;18.848;2023-04-19T17:16:53;7.00;99.90
37356;DHT22;48747;50.250;18.848;2023-04-19T17:19:07;7.00;99.90
37356;DHT22;48747;50.250;18.848;2023-04-19T17:21:11;7.00;99.90
37356;DHT22;48747;50.250;18.848;2023-04-19T17:23:27;7.00;99.90
37356;DHT22;48747;50.250;18.848;2023-04-19T17:25:19;7.10;99.90
37356;DHT22;48747;50.250;18.848;2023-04-19T17:27:24;7.00;99.90
37356;DHT22;48747;50.250;18.848;2023-04-19T17:29:29;7.10;99.90
37356;DHT22;48747;50.250;18.848;2023-04-19T17:31:34;7.10;99.90
37356;DHT22;48747;50.250;18.848;2023-04-19T17:33:40;7.10;99.90
37356;DHT22;48747;50.250;18.848;2023-04-19T17:35:50;7.00;99.90
37356;DHT22;48747;50.250;18.848;2023-04-19T17:37:51;7.10;99.90
37356;DHT22;48747;50.250;18.848;2023-04-19T17:39:54;7.10;99.90
37356;DHT22;48747;50.250;18.848;2023-04-19T17:41:59;7.10;99.90
37356;DHT22;48747;50.250;18.848;2023-04-19T17:44:04;7.10;99.90
37356;DHT22;48747;50.250;18.848;2023-04-19T17:46:10;7.10;99.90
37356;DHT22;48747;50.250;18.848;2023-04-19T17:48:16;7.10;99.90
37356;DHT22;48747;50.250;18.848;2023-04-19T17:50:21;7.10;99.90
37356;DHT22;48747;50.250;18.848;2023-04-19T17:52:24;7.10;99.90
37356;DHT22;48747;50.250;18.848;2023-04-19T17:54:30;7.10;99.90
37356;DHT22;48747;50.250;18.848;2023-04-19T17:56:39;7.10;99.90
37356;DHT22;48747;50.250;18.848;2023-04-19T17:58:49;7.10;99.90
37356;DHT22;48747;50.250;18.848;2023-04-19T18:00:55;7.10;99.90
37356;DHT22;48747;50.250;18.848;2023-04-19T18:03:00;7.10;99.90
37356;DHT22;48747;50.250;18.848;2023-04-19T18:05:03;7.10;99.90
37356;DHT22;48747;50.250;18.848;2023-04-19T18:07:06;7.10;99.90
37356;DHT22;48747;50.250;18.848;2023-04-19T18:09:16;7.10;99.90
37356;DHT22;48747;50.250;18.848;2023-04-19T18:11:20;7.10;99.90
37356;DHT22;48747;50.250;18.848;2023-04-19T18:13:28;7.20;99.90
37356;DHT22;48747;50.250;18.848;2023-04-19T18:15:36;7.20;99.90
37356;DHT22;48747;50.250;18.848;2023-04-19T18:17:40;7.20;99.90
37356;DHT22;48747;50.250;18.848;2023-04-19T18:19:45;7.20;99.90
37356;DHT22;48747;50.250;18.848;2023-04-19T18:21:48;7.20;99.90
37356;DHT22;48747;50.250;18.848;2023-04-19T18:23:54;7.20;99.90
37356;DHT22;48747;50.250;18.848;2023-04-19T18:26:19;7.20;99.90
37356;DHT22;48747;50.250;18.848;2023-04-19T18:28:18;7.30;99.90
37356;DHT22;48747;50.250;18.848;2023-04-19T18:30:22;7.30;99.90
37356;DHT22;48747;50.250;18.848;2023-04-19T18:32:25;7.30;99.90
37356;DHT22;48747;50.250;18.848;2023-04-19T18:34:29;7.20;99.90
37356;DHT22;48747;50.250;18.848;2023-04-19T18:36:35;7.20;99.90
37356;DHT22;48747;50.250;18.848;2023-04-19T18:38:42;7.20;99.90
37356;DHT22;48747;50.250;18.848;2023-04-19T18:40:46;7.20;99.90
37356;DHT22;48747;50.250;18.848;2023-04-19T18:42:49;7.20;99.90
37356;DHT22;48747;50.250;18.848;2023-04-19T18:44:52;7.20;99.90
37356;DHT22;48747;50.250;18.848;2023-04-19T18:47:11;7.30;99.90
37356;DHT22;48747;50.250;18.848;2023-04-19T18:49:13;7.30;99.90
37356;DHT22;48747;50.250;18.848;2023-04-19T18:51:16;7.40;99.90
37356;DHT22;48747;50.250;18.848;2023-04-19T18:53:25;7.40;99.90
37356;DHT22;48747;50.250;18.848;2023-04-19T18:55:25;7.40;99.90
37356;DHT22;48747;50.250;18.848;2023-04-19T18:57:29;7.30;99.90
37356;DHT22;48747;50.250;18.848;2023-04-19T18:59:35;7.30;99.90
37356;DHT22;48747;50.250;18.848;2023-04-19T19:01:55;7.40;99.90
37356;DHT22;48747;50.250;18.848;2023-04-19T19:06:11;7.40;99.90
37356;DHT22;48747;50.250;18.848;2023-04-19T19:08:23;7.40;99.90
37356;DHT22;48747;50.250;18.848;2023-04-19T19:11:07;7.40;99.90
37356;DHT22;48747;50.250;18.848;2023-04-19T19:13:19;7.40;99.90
37356;DHT22;48747;50.250;18.848;2023-04-19T19:21:13;7.40;99.90
37356;DHT22;48747;50.250;18.848;2023-04-19T19:25:37;7.30;99.90
37356;DHT22;48747;50.250;18.848;2023-04-19T19:27:48;7.30;99.90
37356;DHT22;48747;50.250;18.848;2023-04-19T19:38:49;7.30;99.90
37356;DHT22;48747;50.250;18.848;2023-04-19T19:46:12;7.30;99.90
37356;DHT22;48747;50.250;18.848;2023-04-19T19:54:01;7.30;99.90
37356;DHT22;48747;50.250;18.848;2023-04-19T20:06:36;7.40;99.90
37356;DHT22;48747;50.250;18.848;2023-04-19T20:21:33;7.40;99.90
37356;DHT22;48747;50.250;18.848;2023-04-19T20:41:58;7.40;99.90
37356;DHT22;48747;50.250;18.848;2023-04-19T20:43:59;7.40;99.90
37356;DHT22;48747;50.250;18.848;2023-04-19T20:48:38;7.40;99.90
